Terminal Aerodrome Forecast
Issued by NWS Charleston, WV

Current Version | Previous Version | Graphics & Text | Print | Product List | Glossary On
Versions: 1 2 3 4 5 6 7 8 9 10 11 12 13 14 15 16 17 18 19 20 21 22 23
000
FTUS41 KRLX 290821 AAA
TAFHTS
TAF AMD
KHTS 290821Z 2908/3006 11003KT P6SM SCT150
      TEMPO 2909/2911 5SM BR
     FM291200 00000KT P6SM BKN100
     FM291500 19006KT P6SM BKN070
     FM292100 21008KT P6SM VCTS BKN040CB
     FM300200 19004KT P6SM VCTS BKN050CB=

USA.gov is the U.S. government's official web portal to all federal, state and local government web resources and services.